createdAt,value
2023-01-28T00:01:52.126Z,-10977.75
2023-01-28T00:04:58.367Z,-10974.66
2023-01-28T00:08:04.518Z,-10979.16
2023-01-28T00:11:14.174Z,-10973.41
2023-01-28T00:14:20.357Z,-10977.06
2023-01-28T00:17:26.662Z,-10970.75
2023-01-28T00:20:32.947Z,-10971.72
2023-01-28T00:23:41.650Z,-10969.47
2023-01-28T00:26:49.124Z,-10977.34
2023-01-28T00:29:55.690Z,-10977.34
2023-01-28T00:33:02.094Z,-10966.81
2023-01-28T00:36:09.326Z,-10967.38
2023-01-28T00:39:16.443Z,-10971.03
2023-01-28T00:42:24.435Z,-10977.34
2023-01-28T00:45:30.548Z,-10969.34
2023-01-28T00:48:37.909Z,-10978.88
2023-01-28T00:51:44.194Z,-10979.16
2023-01-28T00:54:50.685Z,-10977.47
2023-01-28T00:57:58.468Z,-10975.22
2023-01-28T01:01:09.908Z,-10971.88
2023-01-28T01:04:27.071Z,-10977.06
2023-01-28T01:07:42.300Z,-10983.63
2023-01-28T01:10:48.586Z,-10982.94
2023-01-28T01:13:57.969Z,-10981.69
2023-01-28T01:17:06.816Z,-10975.09
2023-01-28T01:20:16.185Z,-10981.69
2023-01-28T01:23:24.643Z,-10976.34
2023-01-28T01:26:30.872Z,-10979.44
2023-01-28T01:29:39.466Z,-10977.06
2023-01-28T01:32:45.713Z,-10975.78
2023-01-28T01:35:55.964Z,-10981.41
2023-01-28T01:39:02.078Z,-10970.47
2023-01-28T01:42:11.265Z,-10973.28
2023-01-28T01:45:19.261Z,-10967.66
2023-01-28T01:48:31.157Z,-10965.00
2023-01-28T01:51:39.033Z,-10965.97
2023-01-28T01:54:52.846Z,-10977.47
2023-01-28T01:58:01.426Z,-10966.13
2023-01-28T02:01:09.359Z,-10963.75
2023-01-28T02:04:21.148Z,-10971.59
2023-01-28T02:07:27.166Z,-10967.81
2023-01-28T02:10:33.433Z,-10963.47
2023-01-28T02:13:42.796Z,-10963.03
2023-01-28T02:16:50.388Z,-10969.47
2023-01-28T02:20:00.396Z,-10957.00
2023-01-28T02:23:31.883Z,-10967.38
2023-01-28T02:26:51.458Z,-10960.09
2023-01-28T02:30:04.350Z,-10965.00
2023-01-28T02:33:16.393Z,-10959.25
2023-01-28T02:36:29.383Z,-10957.84
2023-01-28T02:39:39.437Z,-10963.03
2023-01-28T02:42:45.616Z,-10961.78
2023-01-28T02:46:07.253Z,-10954.91
2023-01-28T02:49:17.693Z,-10963.19
2023-01-28T02:52:49.681Z,-10959.53
2023-01-28T02:56:03.971Z,-10952.38
2023-01-28T02:59:34.213Z,-10953.66
2023-01-28T03:02:46.831Z,-10962.06
2023-01-28T03:06:13.876Z,-10954.34
2023-01-28T03:09:24.901Z,-10956.16
2023-01-28T03:12:49.731Z,-10965.41
2023-01-28T03:16:13.186Z,-10954.06
2023-01-28T03:19:39.321Z,-10954.78
2023-01-28T03:23:07.963Z,-10965.97
2023-01-28T03:26:34.504Z,-10965.28
2023-01-28T03:30:01.402Z,-10963.19
2023-01-28T03:33:25.979Z,-10952.53
2023-01-28T03:36:53.543Z,-10962.34
2023-01-28T03:40:04.950Z,-10950.00
2023-01-28T03:43:11.056Z,-10952.81
2023-01-28T03:46:18.631Z,-10958.69
2023-01-28T03:49:24.787Z,-10954.78
2023-01-28T03:52:34.379Z,-10959.25
2023-01-28T03:55:40.763Z,-10951.53
2023-01-28T03:58:54.214Z,-10950.56
2023-01-28T04:02:00.309Z,-10953.38
2023-01-28T04:05:07.176Z,-10948.31
2023-01-28T04:08:15.028Z,-10950.72
2023-01-28T04:11:22.057Z,-10955.63
2023-01-28T04:14:28.430Z,-10946.78
2023-01-28T04:17:35.882Z,-10946.94
2023-01-28T04:20:41.782Z,-10943.56
2023-01-28T04:23:49.180Z,-10954.78
2023-01-28T04:26:58.135Z,-10951.41
2023-01-28T04:30:04.599Z,-10965.16
2023-01-28T04:33:11.136Z,-10947.91
2023-01-28T04:36:17.191Z,-10950.84
2023-01-28T04:39:24.735Z,-10948.59
2023-01-28T04:42:30.972Z,-10942.16
2023-01-28T04:45:37.047Z,-10950.72
2023-01-28T04:48:43.674Z,-10949.44
2023-01-28T04:51:52.579Z,-10954.22
2023-01-28T04:55:01.226Z,-10950.16
2023-01-28T04:58:07.807Z,-10947.50
2023-01-28T05:01:14.163Z,-10953.66
2023-01-28T05:04:20.408Z,-10943.97
2023-01-28T05:07:26.590Z,-10950.56
2023-01-28T05:10:34.305Z,-10943.00
2023-01-28T05:13:40.434Z,-10944.41
2023-01-28T05:16:46.421Z,-10943.44
2023-01-28T05:19:55.739Z,-10942.03
2023-01-28T05:23:04.648Z,-10945.94
2023-01-28T05:26:12.417Z,-10946.94
2023-01-28T05:29:18.776Z,-10939.63
2023-01-28T05:32:25.002Z,-10945.53
2023-01-28T05:35:31.087Z,-10947.63
2023-01-28T05:38:37.220Z,-10943.69
2023-01-28T05:41:44.808Z,-10949.16
2023-01-28T05:44:51.199Z,-10943.84
2023-01-28T05:47:57.419Z,-10943.56
2023-01-28T05:51:05.303Z,-10955.63
2023-01-28T05:54:11.571Z,-10955.63
2023-01-28T05:57:18.901Z,-10953.94
2023-01-28T06:00:25.347Z,-10960.66
2023-01-28T06:03:34.327Z,-10951.69
2023-01-28T06:06:40.699Z,-10949.16
2023-01-28T06:09:46.476Z,-10949.31
2023-01-28T06:12:53.747Z,-10946.22
2023-01-28T06:15:59.618Z,-10950.84
2023-01-28T06:19:05.738Z,-10950.56
2023-01-28T06:22:12.026Z,-10947.22
2023-01-28T06:25:19.899Z,-10945.53
2023-01-28T06:28:27.527Z,-10948.59
2023-01-28T06:31:34.163Z,-10955.06
2023-01-28T06:34:40.683Z,-10953.94
2023-01-28T06:37:46.631Z,-10962.06
2023-01-28T06:40:53.507Z,-10951.41
2023-01-28T06:44:01.009Z,-10953.66
2023-01-28T06:47:07.554Z,-10947.34
2023-01-28T06:50:14.332Z,-10952.25
2023-01-28T06:53:21.024Z,-10957.00
2023-01-28T06:56:27.034Z,-10950.84
2023-01-28T06:59:34.461Z,-10954.91
2023-01-28T07:02:41.108Z,-10951.41
2023-01-28T07:05:47.020Z,-10951.25
2023-01-28T07:08:53.019Z,-10955.47
2023-01-28T07:11:58.939Z,-10953.22
2023-01-28T07:15:08.033Z,-10947.63
2023-01-28T07:18:16.527Z,-10955.88
2023-01-28T07:21:22.813Z,-10948.88
2023-01-28T07:24:28.909Z,-10957.84
2023-01-28T07:27:34.874Z,-10964.03
2023-01-28T07:30:42.471Z,-10968.91
2023-01-28T07:33:51.743Z,-10971.31
2023-01-28T07:36:58.073Z,-10966.25
2023-01-28T07:40:04.274Z,-10958.13
2023-01-28T07:43:11.111Z,-10961.91
2023-01-28T07:46:19.384Z,-10960.09
2023-01-28T07:49:25.553Z,-10965.56
2023-01-28T07:52:32.007Z,-10974.38
2023-01-28T07:55:38.936Z,-10957.72
2023-01-28T07:58:47.005Z,-10964.31
2023-01-28T08:01:55.281Z,-10968.63
2023-01-28T08:05:03.791Z,-10973.41
2023-01-28T08:08:10.590Z,-10983.22
2023-01-28T08:11:16.669Z,-10972.16
2023-01-28T08:14:22.612Z,-10973.81
2023-01-28T08:17:31.321Z,-10971.59
2023-01-28T08:20:37.648Z,-10971.03
2023-01-28T08:23:43.788Z,-10976.78
2023-01-28T08:26:49.956Z,-10971.88
2023-01-28T08:29:56.388Z,-10971.88
2023-01-28T08:33:03.895Z,-10975.50
2023-01-28T08:36:10.623Z,-10972.72
2023-01-28T08:39:16.655Z,-10971.59
2023-01-28T08:42:23.155Z,-10991.22
2023-01-28T08:45:30.388Z,-10993.44
2023-01-28T08:48:38.634Z,-10982.66
2023-01-28T08:51:44.923Z,-10972.44
2023-01-28T08:54:51.488Z,-10978.88
2023-01-28T08:57:58.737Z,-10969.34
2023-01-28T09:01:06.971Z,-10974.38
2023-01-28T09:04:14.278Z,-10980.56
2023-01-28T09:07:20.712Z,-10990.50
2023-01-28T09:10:27.212Z,-10989.09
2023-01-28T09:13:33.734Z,-10995.97
2023-01-28T09:16:39.923Z,-10996.41
2023-01-28T09:19:47.842Z,-11007.19
2023-01-28T09:22:54.463Z,-11009.72
2023-01-28T09:26:05.740Z,-10990.38
2023-01-28T09:29:11.810Z,-11007.63
2023-01-28T09:32:18.496Z,-11007.75
2023-01-28T09:35:26.361Z,-11007.34
2023-01-28T09:38:35.202Z,-11016.72
2023-01-28T09:41:54.047Z,-11023.75
2023-01-28T09:45:07.267Z,-11013.38
2023-01-28T09:48:17.646Z,-11016.31
2023-01-28T09:51:35.642Z,-11040.00
2023-01-28T09:54:46.440Z,-11049.00
2023-01-28T09:57:55.581Z,-11062.47
2023-01-28T10:01:18.633Z,-11043.53
2023-01-28T10:04:35.914Z,-11057.97
2023-01-28T10:07:52.700Z,-11068.06
2023-01-28T10:11:08.772Z,-11049.00
2023-01-28T10:14:23.614Z,-11061.06
2023-01-28T10:17:33.671Z,-11071.72
2023-01-28T10:20:45.183Z,-11047.31
2023-01-28T10:24:01.276Z,-11044.78
2023-01-28T10:27:14.007Z,-11040.56
2023-01-28T10:30:23.891Z,-11043.94
2023-01-28T10:33:37.050Z,-11050.81
2023-01-28T10:36:44.248Z,-11066.94
2023-01-28T10:39:54.252Z,-11058.25
2023-01-28T10:43:00.382Z,-11039.44
2023-01-28T10:46:11.074Z,-11055.88
2023-01-28T10:49:20.429Z,-11073.69
2023-01-28T10:52:26.874Z,-11051.78
2023-01-28T10:55:49.350Z,-11083.50
2023-01-28T10:59:00.783Z,-11064.16
2023-01-28T11:02:21.534Z,-11063.72
2023-01-28T11:05:30.552Z,-11060.06
2023-01-28T11:08:45.768Z,-11063.16
2023-01-28T11:11:53.410Z,-11058.69
2023-01-28T11:15:00.893Z,-11060.22
2023-01-28T11:18:16.726Z,-11060.22
2023-01-28T11:21:26.708Z,-11057.97
2023-01-28T11:24:35.231Z,-11044.09
2023-01-28T11:27:47.992Z,-11057.13
2023-01-28T11:30:58.267Z,-11047.44
2023-01-28T11:34:07.198Z,-11056.56
2023-01-28T11:37:16.690Z,-11047.59
2023-01-28T11:40:23.989Z,-11050.13
2023-01-28T11:43:33.135Z,-11049.41
2023-01-28T11:46:59.181Z,-11063.31
2023-01-28T11:50:24.491Z,-11026.97
2023-01-28T11:53:54.198Z,-11046.88
2023-01-28T11:57:11.210Z,-11053.75
2023-01-28T12:00:31.655Z,-11072.28
2023-01-28T12:04:07.246Z,-11070.31
2023-01-28T12:07:28.336Z,-11068.91
2023-01-28T12:10:42.324Z,-11065.56
2023-01-28T12:14:00.526Z,-11047.31
2023-01-28T12:17:29.654Z,-11073.41
2023-01-28T12:20:44.423Z,-11048.16
2023-01-28T12:24:05.243Z,-11045.34
2023-01-28T12:27:23.762Z,-11040.56
2023-01-28T12:30:45.207Z,-11027.66
2023-01-28T12:34:11.790Z,-11036.38
2023-01-28T12:37:25.665Z,-11017.28
2023-01-28T12:40:48.742Z,-11025.16
2023-01-28T12:44:01.777Z,-11030.06
2023-01-28T12:47:12.483Z,-11028.09
2023-01-28T12:50:25.701Z,-11025.44
2023-01-28T12:53:39.404Z,-11030.91
2023-01-28T12:56:50.684Z,-11035.25
2023-01-28T13:00:05.052Z,-11034.25
2023-01-28T13:03:19.353Z,-11038.75
2023-01-28T13:06:31.776Z,-11053.34
2023-01-28T13:09:43.937Z,-11059.25
2023-01-28T13:12:51.440Z,-11032.16
2023-01-28T13:15:58.586Z,-11045.63
2023-01-28T13:19:10.752Z,-11030.19
2023-01-28T13:22:31.121Z,-11029.63
2023-01-28T13:25:49.112Z,-11040.72
2023-01-28T13:29:07.826Z,-11014.19
2023-01-28T13:32:32.875Z,-11019.66
2023-01-28T13:35:41.149Z,-11010.84
2023-01-28T13:38:48.888Z,-11021.06
2023-01-28T13:41:56.810Z,-11015.03
2023-01-28T13:45:24.444Z,-11012.53
2023-01-28T13:48:34.326Z,-11024.59
2023-01-28T13:51:46.519Z,-11010.84
2023-01-28T13:54:58.811Z,-11027.25
2023-01-28T13:58:46.728Z,-11018.13
2023-01-28T14:02:13.951Z,-11027.09
2023-01-28T14:05:37.406Z,-11019.66
2023-01-28T14:09:13.837Z,-11014.47
2023-01-28T14:12:52.268Z,-11013.94
2023-01-28T14:16:07.058Z,-11023.88
2023-01-28T14:19:14.940Z,-11005.22
2023-01-28T14:22:22.703Z,-11016.03
2023-01-28T14:25:35.209Z,-11004.25
2023-01-28T14:28:50.329Z,-11002.44
2023-01-28T14:31:57.278Z,-11003.25
2023-01-28T14:35:09.833Z,-11002.97
2023-01-28T14:38:19.079Z,-10997.38
2023-01-28T14:41:28.952Z,-11001.31
2023-01-28T14:44:40.582Z,-10991.34
2023-01-28T14:47:59.825Z,-10997.66
2023-01-28T14:51:33.984Z,-10993.88
2023-01-28T14:54:53.504Z,-10996.13
2023-01-28T14:58:02.427Z,-10990.50
2023-01-28T15:01:22.609Z,-10999.06
2023-01-28T15:04:31.392Z,-10993.44
2023-01-28T15:07:38.003Z,-10994.44
2023-01-28T15:10:44.312Z,-10997.94
2023-01-28T15:13:55.688Z,-10991.91
2023-01-28T15:17:04.961Z,-10988.25
2023-01-28T15:20:20.487Z,-10985.03
2023-01-28T15:23:29.316Z,-10986.31
2023-01-28T15:26:36.021Z,-10986.88
2023-01-28T15:29:42.173Z,-10995.13
2023-01-28T15:32:58.738Z,-10989.53
2023-01-28T15:36:06.909Z,-10998.50
2023-01-28T15:39:15.938Z,-10996.53
2023-01-28T15:42:26.639Z,-10996.25
2023-01-28T15:45:34.376Z,-10992.06
2023-01-28T15:48:45.979Z,-10988.53
2023-01-28T15:51:52.534Z,-10995.28
2023-01-28T15:54:59.463Z,-10994.84
2023-01-28T15:58:19.210Z,-10984.47
2023-01-28T16:01:25.756Z,-10988.13
2023-01-28T16:04:33.891Z,-10994.44
2023-01-28T16:07:46.637Z,-10995.84
2023-01-28T16:10:55.019Z,-10991.63
2023-01-28T16:14:01.303Z,-10992.34
2023-01-28T16:17:07.542Z,-10983.63
2023-01-28T16:20:23.257Z,-10996.81
2023-01-28T16:23:29.659Z,-10987.16
2023-01-28T16:26:37.455Z,-10988.13
2023-01-28T16:29:43.803Z,-10988.41
2023-01-28T16:32:50.612Z,-10993.19
2023-01-28T16:36:08.240Z,-10993.59
2023-01-28T16:39:14.917Z,-10997.66
2023-01-28T16:42:21.419Z,-10993.44
2023-01-28T16:45:27.839Z,-10996.81
2023-01-28T16:48:33.942Z,-11000.31
2023-01-28T16:51:44.144Z,-10993.44
2023-01-28T16:54:50.626Z,-10999.34
2023-01-28T16:57:58.925Z,-11001.31
2023-01-28T17:01:04.909Z,-10989.81
2023-01-28T17:04:12.721Z,-10997.94
2023-01-28T17:07:21.436Z,-10994.28
2023-01-28T17:10:27.980Z,-10993.19
2023-01-28T17:13:34.051Z,-10993.88
2023-01-28T17:16:40.405Z,-10985.59
2023-01-28T17:19:46.564Z,-10981.69
2023-01-28T17:22:54.624Z,-10998.78
2023-01-28T17:26:05.939Z,-10992.34
2023-01-28T17:29:12.182Z,-10990.50
2023-01-28T17:32:18.461Z,-10988.97
2023-01-28T17:35:24.945Z,-10996.53
2023-01-28T17:38:32.598Z,-10993.44
2023-01-28T17:41:38.940Z,-10990.38
2023-01-28T17:44:45.280Z,-10990.66
2023-01-28T17:47:51.529Z,-11000.47
2023-01-28T17:50:58.349Z,-10993.03
2023-01-28T17:54:05.974Z,-10989.38
2023-01-28T17:57:12.327Z,-10993.72
2023-01-28T18:00:20.421Z,-10997.09
2023-01-28T18:03:26.988Z,-10994.00
2023-01-28T18:06:33.876Z,-10986.16
2023-01-28T18:09:42.652Z,-10993.72
2023-01-28T18:12:49.141Z,-10994.16
2023-01-28T18:15:55.280Z,-10992.34
2023-01-28T18:19:01.637Z,-10994.16
2023-01-28T18:22:07.890Z,-10996.41
2023-01-28T18:25:18.108Z,-11000.19
2023-01-28T18:28:25.139Z,-11005.50
2023-01-28T18:31:31.396Z,-10995.97
2023-01-28T18:34:37.821Z,-10993.72
2023-01-28T18:37:43.739Z,-10993.44
2023-01-28T18:40:55.996Z,-10996.53
2023-01-28T18:44:01.938Z,-10997.66
2023-01-28T18:47:08.429Z,-10996.13
2023-01-28T18:50:14.576Z,-10998.63
2023-01-28T18:53:20.469Z,-11001.59
2023-01-28T18:56:28.445Z,-11004.66
2023-01-28T18:59:34.538Z,-11005.22
2023-01-28T19:02:40.681Z,-11006.34
2023-01-28T19:05:47.338Z,-11003.53
2023-01-28T19:08:54.972Z,-10998.34
2023-01-28T19:12:02.542Z,-11002.56
2023-01-28T19:15:10.062Z,-11003.25
2023-01-28T19:18:16.486Z,-11007.34
2023-01-28T19:21:23.535Z,-10992.19
2023-01-28T19:24:30.073Z,-10990.38
2023-01-28T19:27:37.790Z,-10997.66
2023-01-28T19:30:45.974Z,-10991.50
2023-01-28T19:33:55.821Z,-10996.53
2023-01-28T19:37:01.473Z,-10998.22
2023-01-28T19:40:09.104Z,-11003.13
2023-01-28T19:43:16.483Z,-11006.22
2023-01-28T19:46:22.986Z,-10993.44
2023-01-28T19:49:29.505Z,-10995.97
2023-01-28T19:52:35.881Z,-11000.19
2023-01-28T19:55:42.984Z,-10989.38
2023-01-28T19:58:51.352Z,-10996.25
2023-01-28T20:01:57.735Z,-10991.78
2023-01-28T20:05:04.986Z,-10991.22
2023-01-28T20:08:11.970Z,-10992.34
2023-01-28T20:11:18.146Z,-10988.41
2023-01-28T20:14:25.622Z,-10986.16
2023-01-28T20:17:32.016Z,-10980.97
2023-01-28T20:20:38.372Z,-10978.88
2023-01-28T20:23:44.725Z,-10980.84
2023-01-28T20:26:50.934Z,-10982.94
2023-01-28T20:29:58.450Z,-10985.47
2023-01-28T20:33:04.292Z,-10986.44
2023-01-28T20:36:13.622Z,-10976.34
2023-01-28T20:39:19.859Z,-10981.97
2023-01-28T20:42:26.165Z,-10980.56
2023-01-28T20:45:34.240Z,-10980.00
2023-01-28T20:48:40.262Z,-10971.31
2023-01-28T20:51:46.213Z,-10977.75
2023-01-28T20:54:52.287Z,-10980.28
2023-01-28T20:57:58.896Z,-10971.31
2023-01-28T21:01:07.208Z,-10977.47
2023-01-28T21:04:14.992Z,-10974.38
2023-01-28T21:07:20.945Z,-10971.31
2023-01-28T21:10:27.185Z,-10975.78
2023-01-28T21:13:33.835Z,-10970.31
2023-01-28T21:16:43.263Z,-10965.97
2023-01-28T21:19:49.869Z,-10971.59
2023-01-28T21:22:56.177Z,-10969.63
2023-01-28T21:26:03.553Z,-10963.75
2023-01-28T21:29:09.731Z,-10962.63
2023-01-28T21:32:17.761Z,-10960.94
2023-01-28T21:35:23.717Z,-10965.69
2023-01-28T21:38:29.729Z,-10965.41
2023-01-28T21:41:35.757Z,-10964.31
2023-01-28T21:44:41.858Z,-10971.03
2023-01-28T21:47:49.141Z,-10964.44
2023-01-28T21:51:12.675Z,-10961.50
2023-01-28T21:54:20.664Z,-10963.47
2023-01-28T21:57:26.922Z,-10967.25
2023-01-28T22:00:32.816Z,-10960.38
2023-01-28T22:03:40.167Z,-10958.97
2023-01-28T22:06:45.966Z,-10958.97
2023-01-28T22:09:52.556Z,-10971.88
2023-01-28T22:12:58.750Z,-10958.56
2023-01-28T22:16:05.604Z,-10958.41
2023-01-28T22:19:14.706Z,-10957.84
2023-01-28T22:22:21.102Z,-10958.41
2023-01-28T22:25:27.578Z,-10970.19
2023-01-28T22:28:33.522Z,-10967.94
2023-01-28T22:31:40.438Z,-10957.84
2023-01-28T22:34:48.339Z,-10971.44
2023-01-28T22:37:54.607Z,-10970.03
2023-01-28T22:41:06.562Z,-10967.09
2023-01-28T22:44:13.366Z,-10965.84
2023-01-28T22:47:19.749Z,-10967.81
2023-01-28T22:50:27.135Z,-10974.81
2023-01-28T22:53:33.395Z,-10969.63
2023-01-28T22:56:40.300Z,-10963.47
2023-01-28T22:59:59.503Z,-10971.31
2023-01-28T23:03:06.165Z,-10961.50
2023-01-28T23:06:13.709Z,-10960.38
2023-01-28T23:09:19.531Z,-10967.81
2023-01-28T23:12:25.784Z,-10962.47
2023-01-28T23:15:49.244Z,-10968.78
2023-01-28T23:19:12.880Z,-10965.69
2023-01-28T23:22:41.377Z,-10969.91
2023-01-28T23:25:49.203Z,-10959.81
2023-01-28T23:28:55.242Z,-10959.97
2023-01-28T23:32:04.764Z,-10965.00
2023-01-28T23:35:12.301Z,-10966.25
2023-01-28T23:38:19.946Z,-10958.69
2023-01-28T23:41:25.942Z,-10959.81
2023-01-28T23:44:32.174Z,-10971.88
2023-01-28T23:47:38.311Z,-10961.91
2023-01-28T23:50:44.364Z,-10964.03
2023-01-28T23:53:52.243Z,-10959.81
2023-01-28T23:56:58.592Z,-10972.44
